Time;durP1;ratioP1;P1;durP2;ratioP2;P2;SDS_P1;SDS_P2;PMS_P1;PMS_P2;Temp;Humidity;BMP_temperature;BMP_pressure;BME280_temperature;BME280_humidity;BME280_pressure;Samples;Min_cycle;Max_cycle;Signal;HPM_P1;HPM_P2
2023/09/05 00:00:30;;;;;;;15.53;9.45;;;;;;;11.16;75.33;101477.23;1751303;82;25496;-59
2023/09/05 00:02:58;;;;;;;17.27;10.08;;;;;;;11.14;75.13;101475.92;1666851;86;25166;-59
2023/09/05 00:05:25;;;;;;;15.18;8.90;;;;;;;11.11;75.00;101473.22;1669646;86;27841;-60
2023/09/05 00:07:51;;;;;;;13.55;9.40;;;;;;;11.08;75.10;101477.84;1669442;86;25641;-59
2023/09/05 00:10:18;;;;;;;16.02;9.45;;;;;;;11.05;74.96;101477.08;1669231;86;25658;-60
2023/09/05 00:12:44;;;;;;;14.78;9.45;;;;;;;11.01;75.08;101476.01;1669093;86;25538;-59
2023/09/05 00:15:14;;;;;;;14.70;8.93;;;;;;;11.00;75.03;101477.12;1669156;86;25486;-58
2023/09/05 00:17:44;;;;;;;14.70;9.48;;;;;;;10.97;75.25;101478.48;1669155;86;27512;-62
2023/09/05 00:20:15;;;;;;;15.15;10.10;;;;;;;10.96;75.83;101476.05;1669225;86;33258;-60
2023/09/05 00:22:39;;;;;;;;;;;;;;;10.93;75.78;101476.08;1671683;86;25481;-59
2023/09/05 00:25:11;;;;;;;13.85;9.25;;;;;;;10.92;75.95;101473.66;1669283;86;25627;-59
2023/09/05 00:27:35;;;;;;;11.88;9.25;;;;;;;10.89;75.96;101482.33;1669349;85;25663;-59
2023/09/05 00:30:03;;;;;;;11.22;9.30;;;;;;;10.86;75.70;101483.69;1669369;86;27570;-60
2023/09/05 00:32:32;;;;;;;15.10;9.05;;;;;;;10.84;75.79;101484.52;1669219;86;25625;-60
2023/09/05 00:34:57;;;;;;;14.47;9.55;;;;;;;10.79;75.60;101485.36;1669329;85;25651;-59
2023/09/05 00:37:23;;;;;;;16.77;10.55;;;;;;;10.77;75.45;101491.60;1669308;85;25665;-58
2023/09/05 00:39:51;;;;;;;15.83;9.65;;;;;;;10.75;75.69;101487.58;1669288;85;25645;-59
2023/09/05 00:42:18;;;;;;;18.23;9.58;;;;;;;10.71;75.86;101482.44;1669296;86;29719;-59
2023/09/05 00:44:47;;;;;;;15.98;9.28;;;;;;;10.69;75.91;101480.56;1669167;86;25866;-59
2023/09/05 00:47:15;;;;;;;14.83;9.58;;;;;;;10.67;76.48;101480.84;1669367;86;25561;-60
2023/09/05 00:49:47;;;;;;;14.55;9.80;;;;;;;10.68;76.46;101486.53;1669251;86;26019;-60
2023/09/05 00:52:11;;;;;;;14.30;10.15;;;;;;;10.65;76.27;101478.41;1669269;86;25414;-59
2023/09/05 00:54:38;;;;;;;17.52;9.63;;;;;;;10.65;76.62;101482.47;1669264;86;27554;-58
2023/09/05 00:57:06;;;;;;;19.52;9.25;;;;;;;10.65;76.53;101477.06;1669171;86;25864;-58
2023/09/05 00:59:33;;;;;;;18.23;10.03;;;;;;;10.65;76.51;101481.13;1669476;86;25633;-60
2023/09/05 01:01:59;;;;;;;15.23;10.03;;;;;;;10.64;76.89;101482.23;1683238;84;25636;-59
2023/09/05 01:04:27;;;;;;;14.45;9.88;;;;;;;10.65;77.04;101476.27;1695404;84;25811;-59
2023/09/05 01:07:10;;;;;;;15.90;10.00;;;;;;;10.65;76.95;101474.91;1695354;84;27630;-59
2023/09/05 01:10:00;;;;;;;14.23;8.80;;;;;;;10.63;76.86;101467.63;1695289;84;25619;-59
2023/09/05 01:12:27;;;;;;;15.38;9.05;;;;;;;10.62;76.67;101472.23;1694455;84;25484;-57
2023/09/05 01:14:53;;;;;;;12.63;9.48;;;;;;;10.59;76.71;101469.25;1696841;84;25615;-58
2023/09/05 01:17:19;;;;;;;12.98;9.40;;;;;;;10.58;76.73;101467.66;1695371;84;25659;-58
2023/09/05 01:19:48;;;;;;;19.48;10.00;;;;;;;10.55;76.65;101462.25;1695350;84;29628;-59
2023/09/05 01:22:51;;;;;;;14.00;10.23;;;;;;;10.51;76.56;101472.02;1695543;84;25406;-58
2023/09/05 01:25:19;;;;;;;18.00;10.13;;;;;;;10.50;76.57;101466.89;1695476;84;25439;-57
2023/09/05 01:27:48;;;;;;;18.80;10.85;;;;;;;10.48;76.78;101475.83;1695586;84;25561;-59
2023/09/05 01:30:15;;;;;;;13.48;9.83;;;;;;;10.45;76.70;101473.95;1695606;84;25450;-55
2023/09/05 01:32:43;;;;;;;15.43;10.13;;;;;;;10.42;76.77;101470.98;1673347;84;27504;-58
2023/09/05 01:35:09;;;;;;;14.38;9.63;;;;;;;10.38;76.70;101472.63;1695277;84;25600;-59
2023/09/05 01:37:35;;;;;;;17.57;9.98;;;;;;;10.33;76.82;101470.75;1695331;84;25514;-59
2023/09/05 01:40:03;;;;;;;15.85;9.90;;;;;;;10.32;77.13;101471.86;1695320;84;26051;-57
2023/09/05 01:42:29;;;;;;;15.00;10.03;;;;;;;10.29;76.92;101475.88;1695367;84;25554;-58
2023/09/05 01:44:55;;;;;;;14.33;9.78;;;;;;;10.26;76.86;101476.98;1695330;84;27551;-58
2023/09/05 01:47:21;;;;;;;16.10;10.23;;;;;;;10.25;77.19;101481.59;1695217;84;25927;-58
2023/09/05 01:49:47;;;;;;;17.27;10.48;;;;;;;10.23;77.62;101481.59;1695312;84;25576;-57
2023/09/05 01:52:13;;;;;;;17.67;10.08;;;;;;;10.20;77.54;101480.27;1695309;84;26172;-58
2023/09/05 01:54:41;;;;;;;16.75;10.43;;;;;;;10.18;77.55;101478.91;1695404;84;25622;-58
2023/09/05 01:57:07;;;;;;;14.05;9.25;;;;;;;10.15;77.20;101480.81;1695259;84;27519;-58
2023/09/05 01:59:34;;;;;;;16.90;10.00;;;;;;;10.13;77.35;101479.77;1695257;84;25558;-57
2023/09/05 02:02:00;;;;;;;14.07;9.00;;;;;;;10.11;77.22;101477.85;1695864;84;25402;-57
2023/09/05 02:04:26;;;;;;;14.83;9.35;;;;;;;10.08;77.02;101478.43;1696775;84;25620;-59
2023/09/05 02:06:52;;;;;;;12.28;9.53;;;;;;;10.04;77.06;101478.70;1696866;84;25400;-59
2023/09/05 02:09:19;;;;;;;15.35;9.38;;;;;;;10.02;77.11;101480.87;1696810;84;27561;-57
2023/09/05 02:11:45;;;;;;;18.75;9.63;;;;;;;10.00;77.29;101473.04;1696828;84;25604;-58
2023/09/05 02:14:11;;;;;;;15.32;9.88;;;;;;;9.99;77.45;101471.95;1696818;84;25489;-59
2023/09/05 02:16:37;;;;;;;17.65;9.53;;;;;;;9.95;77.55;101473.61;1696726;84;25559;-59
2023/09/05 02:19:03;;;;;;;15.08;9.25;;;;;;;9.93;77.39;101476.58;1696851;84;25411;-57
2023/09/05 02:21:29;;;;;;;16.50;11.95;;;;;;;9.91;77.68;101472.80;1696804;84;27484;-59
2023/09/05 02:23:56;;;;;;;18.85;10.70;;;;;;;9.94;79.21;101474.68;1696739;84;25800;-59
2023/09/05 02:26:22;;;;;;;16.25;11.60;;;;;;;9.97;79.79;101466.02;1696804;84;25450;-59
2023/09/05 02:28:48;;;;;;;19.17;12.40;;;;;;;10.02;80.30;101471.41;1696809;84;26153;-60
2023/09/05 02:31:14;;;;;;;21.30;14.28;;;;;;;10.04;80.27;101467.88;1696802;84;25588;-58
2023/09/05 02:33:41;;;;;;;27.42;16.57;;;;;;;10.08;80.85;101470.31;1696846;84;27542;-59
2023/09/05 02:36:18;;;;;;;34.30;21.42;;;;;;;10.12;80.88;101460.56;1696834;84;25564;-59
2023/09/05 02:38:46;;;;;;;30.40;18.23;;;;;;;10.15;80.80;101456.47;1696874;84;25471;-60
2023/09/05 02:41:17;;;;;;;22.15;14.07;;;;;;;10.18;80.78;101455.92;1696791;84;25653;-59
2023/09/05 02:43:46;;;;;;;19.65;12.25;;;;;;;10.19;80.20;101457.55;1696827;84;25635;-60
2023/09/05 02:46:14;;;;;;;18.07;11.28;;;;;;;10.18;80.16;101459.46;1696957;84;29571;-59
2023/09/05 02:48:43;;;;;;;16.82;10.98;;;;;;;10.17;79.78;101456.48;1696743;84;25471;-59
2023/09/05 02:51:13;;;;;;;17.60;10.23;;;;;;;10.17;79.86;101463.80;1696960;84;25463;-59
2023/09/05 02:53:40;;;;;;;16.50;9.83;;;;;;;10.18;80.00;101468.09;1696796;84;25566;-59
2023/09/05 02:56:07;;;;;;;17.32;10.70;;;;;;;10.19;80.09;101462.97;1696821;84;25638;-58
2023/09/05 02:58:34;;;;;;;18.50;10.23;;;;;;;10.20;80.25;101469.45;1696847;84;28200;-58
2023/09/05 03:01:05;;;;;;;14.90;9.50;;;;;;;10.22;80.49;101460.51;1696712;84;25379;-60
2023/09/05 03:03:32;;;;;;;14.63;9.58;;;;;;;10.24;80.33;101465.64;1696437;84;25571;-58
2023/09/05 03:08:59;;;;;;;14.07;8.75;;;;;;;10.27;80.40;101469.95;1671912;85;25415;-58
2023/09/05 03:11:25;;;;;;;17.15;9.40;;;;;;;10.31;80.26;101467.49;1671926;85;27506;-57
2023/09/05 03:13:51;;;;;;;16.12;9.13;;;;;;;10.32;80.35;101466.97;1671842;85;25669;-58
2023/09/05 03:16:18;;;;;;;11.35;8.78;;;;;;;10.34;80.25;101464.27;1671897;85;25690;-56
2023/09/05 03:18:45;;;;;;;14.07;9.20;;;;;;;10.36;80.13;101466.14;1671892;85;26077;-56
2023/09/05 03:21:11;;;;;;;12.10;8.05;;;;;;;10.38;79.97;101466.67;1671954;85;25663;-56
2023/09/05 03:23:38;;;;;;;12.40;8.33;;;;;;;10.39;79.71;101462.89;1671931;85;28217;-58
2023/09/05 03:26:04;;;;;;;16.25;9.78;;;;;;;10.41;79.62;101466.12;1671826;85;25579;-59
2023/09/05 03:28:45;;;;;;;15.08;9.38;;;;;;;10.42;79.27;101468.27;1671889;85;25536;-59
2023/09/05 03:31:12;;;;;;;15.72;9.70;;;;;;;10.42;79.21;101464.21;1671890;85;25725;-58
2023/09/05 03:33:39;;;;;;;13.40;9.18;;;;;;;10.38;79.14;101466.67;1671924;85;25801;-56
2023/09/05 03:36:07;;;;;;;15.28;9.70;;;;;;;10.39;79.15;101468.30;1671903;85;27473;-60
2023/09/05 03:38:34;;;;;;;19.82;9.93;;;;;;;10.40;79.21;101473.98;1671759;85;25712;-60
2023/09/05 03:41:00;;;;;;;15.28;9.53;;;;;;;10.38;78.70;101476.69;1671888;85;25568;-60
2023/09/05 03:43:27;;;;;;;17.12;10.48;;;;;;;10.36;78.54;101477.52;1671852;85;26192;-60
2023/09/05 03:45:53;;;;;;;14.75;9.08;;;;;;;10.36;78.86;101473.45;1691028;83;25513;-59
2023/09/05 03:48:20;;;;;;;12.90;9.95;;;;;;;10.35;78.91;101469.95;1741143;82;27565;-60
2023/09/05 03:50:46;;;;;;;14.45;9.15;;;;;;;10.32;78.71;101473.21;1741247;82;25605;-57
2023/09/05 03:53:12;;;;;;;13.83;9.45;;;;;;;10.31;78.75;101482.92;1740648;82;25535;-59
2023/09/05 03:55:38;;;;;;;15.80;9.60;;;;;;;10.30;78.83;101486.18;1739938;82;25678;-59
2023/09/05 03:58:05;;;;;;;14.58;9.35;;;;;;;10.30;78.83;101494.29;1740111;82;25761;-58
2023/09/05 04:00:35;;;;;;;14.98;9.98;;;;;;;10.27;78.58;101488.88;1740343;82;27702;-59
2023/09/05 04:03:02;;;;;;;13.75;9.85;;;;;;;10.27;78.93;101486.73;1740525;82;25789;-59
2023/09/05 04:05:32;;;;;;;14.70;8.58;;;;;;;10.28;78.88;101493.73;1740951;82;25496;-60
2023/09/05 04:07:58;;;;;;;14.23;9.05;;;;;;;10.28;78.89;101493.22;1739409;82;25468;-60
2023/09/05 04:10:25;;;;;;;13.22;9.00;;;;;;;10.32;78.99;101496.72;1738144;82;25626;-59
2023/09/05 04:12:51;;;;;;;12.15;8.63;;;;;;;10.33;79.00;101497.80;1738250;82;27531;-59
2023/09/05 04:15:21;;;;;;;14.83;9.08;;;;;;;10.35;78.94;101493.47;1738457;82;25503;-60
2023/09/05 04:17:47;;;;;;;16.37;8.93;;;;;;;10.37;79.16;101497.53;1738087;82;25472;-60
2023/09/05 04:20:15;;;;;;;14.30;10.10;;;;;;;10.37;78.79;101496.70;1738623;82;25629;-61
2023/09/05 04:22:42;;;;;;;13.95;9.13;;;;;;;10.35;78.82;101495.65;1736020;82;25638;-59
2023/09/05 04:25:09;;;;;;;13.40;8.95;;;;;;;10.37;78.92;101498.05;1726603;83;28071;-58
2023/09/05 04:27:36;;;;;;;16.62;9.40;;;;;;;10.34;78.36;101502.69;1704981;84;25593;-59
2023/09/05 04:30:06;;;;;;;13.43;8.60;;;;;;;10.31;78.22;101505.91;1705295;84;25407;-58
2023/09/05 04:32:34;;;;;;;15.30;9.98;;;;;;;10.27;78.04;101507.01;1738918;82;25413;-60
2023/09/05 04:35:04;;;;;;;14.30;8.63;;;;;;;10.24;78.40;101503.50;1738783;82;25573;-59
2023/09/05 04:37:31;;;;;;;12.60;8.78;;;;;;;10.25;78.68;101504.58;1738713;82;27485;-59
2023/09/05 04:39:58;;;;;;;19.42;9.83;;;;;;;10.27;78.67;101504.30;1738603;82;25438;-59
2023/09/05 04:42:26;;;;;;;14.13;9.28;;;;;;;10.27;78.71;101496.19;1738543;82;25603;-59
2023/09/05 04:44:52;;;;;;;15.32;9.63;;;;;;;10.26;78.72;101496.71;1738180;82;25871;-59
2023/09/05 04:47:27;;;;;;;13.15;9.38;;;;;;;10.28;78.88;101504.03;1738497;82;25442;-59
2023/09/05 04:49:59;;;;;;;11.97;8.93;;;;;;;10.27;78.79;101504.30;1738552;82;27543;-59
2023/09/05 04:52:29;;;;;;;12.88;9.20;;;;;;;10.32;79.16;101507.53;1738453;82;25602;-59
2023/09/05 04:55:00;;;;;;;13.90;9.70;;;;;;;10.33;79.17;101506.47;1738476;82;25592;-58
2023/09/05 04:57:28;;;;;;;12.80;8.75;;;;;;;10.38;79.49;101502.38;1737864;81;25559;-59
2023/09/05 04:59:59;;;;;;;12.78;8.55;;;;;;;10.43;79.52;101498.30;1738658;82;25401;-60
2023/09/05 05:02:28;;;;;;;12.93;8.75;;;;;;;10.48;79.60;101504.23;1738505;82;27490;-60
2023/09/05 05:04:55;;;;;;;13.10;9.20;;;;;;;10.51;79.57;101495.02;1738542;82;33177;-60
2023/09/05 05:07:22;;;;;;;13.83;9.18;;;;;;;10.58;79.78;101494.16;1738326;82;25558;-60
2023/09/05 05:09:48;;;;;;;14.78;9.33;;;;;;;10.64;79.88;101491.70;1738475;82;25618;-60
2023/09/05 05:12:16;;;;;;;15.45;8.65;;;;;;;10.71;80.02;101483.27;1738500;82;25480;-60
2023/09/05 05:14:43;;;;;;;13.58;9.28;;;;;;;10.80;80.02;101485.63;1738466;82;27481;-60
2023/09/05 05:17:11;;;;;;;13.65;9.40;;;;;;;10.85;79.73;101487.50;1738393;82;25585;-60
2023/09/05 05:19:37;;;;;;;16.42;9.25;;;;;;;10.91;79.72;101492.33;1738254;82;25617;-59
2023/09/05 05:22:05;;;;;;;14.00;10.03;;;;;;;10.95;79.84;101483.38;1738488;82;25486;-60
2023/09/05 05:24:32;;;;;;;13.90;9.53;;;;;;;11.04;80.22;101493.05;1735987;82;25415;-60
2023/09/05 05:26:58;;;;;;;13.85;9.63;;;;;;;11.14;80.41;101490.26;1726399;83;27458;-60
2023/09/05 05:29:26;;;;;;;15.30;10.13;;;;;;;11.27;81.16;101487.98;1722833;83;25432;-60
2023/09/05 05:31:53;;;;;;;19.15;11.20;;;;;;;11.37;81.30;101479.77;1705067;83;25531;-60
2023/09/05 05:34:19;;;;;;;17.23;11.48;;;;;;;11.50;81.25;101482.36;1761873;81;25625;-60
2023/09/05 05:36:47;;;;;;;18.15;11.08;;;;;;;11.63;81.14;101487.64;1759492;81;25416;-60
2023/09/05 05:39:14;;;;;;;20.20;11.20;;;;;;;11.75;81.39;101484.81;1757071;81;27274;-60
2023/09/05 05:41:40;;;;;;;21.82;12.35;;;;;;;11.88;81.40;101483.30;1756710;81;25767;-60
2023/09/05 05:44:06;;;;;;;22.98;13.88;;;;;;;12.02;82.20;101492.96;1756554;81;25398;-60
2023/09/05 05:46:32;;;;;;;18.12;13.18;;;;;;;12.17;82.53;101491.94;1756435;81;25517;-60
2023/09/05 05:48:59;;;;;;;20.40;13.45;;;;;;;12.31;82.79;101491.51;1756776;81;25533;-60
2023/09/05 05:51:27;;;;;;;24.00;13.80;;;;;;;12.49;83.35;101493.97;1756815;81;27495;-60
2023/09/05 05:53:54;;;;;;;21.05;14.60;;;;;;;12.67;83.69;101497.80;1756742;81;25782;-60
2023/09/05 05:56:21;;;;;;;20.10;13.58;;;;;;;12.88;83.78;101491.51;1756825;81;25420;-60
2023/09/05 05:58:48;;;;;;;17.25;12.88;;;;;;;13.10;83.70;101498.80;1729175;81;25521;-60
2023/09/05 06:01:18;;;;;;;20.60;11.95;;;;;;;13.28;83.40;101504.75;1756800;81;25394;-60
2023/09/05 06:03:46;;;;;;;14.05;11.80;;;;;;;13.49;83.17;101503.07;1756783;81;27479;-60
2023/09/05 06:06:14;;;;;;;14.80;11.97;;;;;;;13.71;83.25;101496.96;1756751;81;25647;-60
2023/09/05 06:08:40;;;;;;;15.28;11.35;;;;;;;13.94;83.49;101493.78;1756625;81;25627;-60
2023/09/05 06:11:08;;;;;;;14.98;11.53;;;;;;;14.14;82.69;101499.38;1756751;81;26174;-60
2023/09/05 06:13:34;;;;;;;14.40;10.58;;;;;;;14.36;82.60;101498.08;1729350;81;25552;-60
2023/09/05 06:16:02;;;;;;;14.75;9.43;;;;;;;14.60;82.31;101496.27;1756814;81;27588;-60
2023/09/05 06:18:28;;;;;;;17.92;10.13;;;;;;;14.83;82.11;101489.73;1756617;81;25432;-59
2023/09/05 06:20:54;;;;;;;14.20;9.38;;;;;;;15.07;81.98;101488.63;1756837;81;25571;-59
2023/09/05 06:23:22;;;;;;;12.07;8.65;;;;;;;15.32;81.64;101489.89;1756743;81;25528;-60
2023/09/05 06:25:49;;;;;;;11.50;8.78;;;;;;;15.58;81.16;101492.77;1756797;81;25557;-58
2023/09/05 06:28:16;;;;;;;10.30;7.62;;;;;;;15.86;80.67;101502.14;1756726;81;27553;-60
2023/09/05 06:30:44;;;;;;;10.18;6.90;;;;;;;16.09;79.65;101493.31;1756682;81;25608;-59
2023/09/05 06:33:11;;;;;;;11.57;7.00;;;;;;;16.31;78.60;101492.41;1756752;81;25559;-60
2023/09/05 06:35:37;;;;;;;13.95;6.83;;;;;;;16.50;77.25;101489.91;1729124;81;27560;-59
2023/09/05 06:38:05;;;;;;;12.95;6.33;;;;;;;16.68;76.52;101494.27;1756753;81;25402;-59
2023/09/05 06:40:33;;;;;;;12.73;7.05;;;;;;;16.91;76.23;101485.95;1756997;81;27540;-60
2023/09/05 06:42:59;;;;;;;11.80;6.40;;;;;;;17.14;74.93;101485.98;1756756;81;25805;-59
2023/09/05 06:45:26;;;;;;;12.20;6.47;;;;;;;17.38;74.61;101485.21;1756830;81;25459;-60
2023/09/05 06:47:53;;;;;;;9.85;6.22;;;;;;;17.59;74.16;101483.92;1756721;81;25444;-59
2023/09/05 06:50:21;;;;;;;11.97;6.10;;;;;;;17.87;74.21;101495.28;1756774;81;25523;-63
2023/09/05 06:52:49;;;;;;;8.50;5.90;;;;;;;18.14;74.00;101487.16;1756775;81;27497;-56
2023/09/05 06:55:15;;;;;;;8.83;5.45;;;;;;;18.46;72.73;101493.09;1756722;81;25718;-58
2023/09/05 06:57:42;;;;;;;11.10;6.30;;;;;;;18.73;71.92;101486.81;1756816;81;25523;-57
2023/09/05 07:00:11;;;;;;;14.10;8.75;;;;;;;19.02;72.12;101488.13;1756852;81;26210;-59
2023/09/05 07:02:37;;;;;;;10.60;6.03;;;;;;;19.42;71.95;101494.97;1757021;81;25694;-59
2023/09/05 07:05:06;;;;;;;9.58;5.55;;;;;;;19.85;71.08;101488.75;1756897;81;27158;-59
2023/09/05 07:07:33;;;;;;;11.83;5.45;;;;;;;20.24;69.96;101490.55;1756853;81;25469;-60
2023/09/05 07:10:00;;;;;;;8.60;5.17;;;;;;;20.56;68.12;101482.48;1756706;81;26311;-59
2023/09/05 07:12:26;;;;;;;7.35;5.33;;;;;;;20.86;66.73;101489.86;1756665;81;27629;-58
2023/09/05 07:14:53;;;;;;;6.75;5.05;;;;;;;21.06;65.28;101490.77;1756770;81;25522;-59
2023/09/05 07:17:20;;;;;;;8.78;5.22;;;;;;;21.33;64.70;101491.88;1756718;81;28415;-59
2023/09/05 07:19:46;;;;;;;9.78;5.37;;;;;;;21.58;62.90;101487.64;1756698;81;25443;-60
2023/09/05 07:22:14;;;;;;;12.03;5.45;;;;;;;21.75;63.59;101490.61;1756706;81;25369;-60
2023/09/05 07:24:41;;;;;;;8.45;4.67;;;;;;;22.07;62.80;101496.08;1756814;81;26143;-58
2023/09/05 07:27:08;;;;;;;7.65;4.42;;;;;;;22.28;60.18;101493.82;1756784;81;25585;-61
2023/09/05 07:29:35;;;;;;;9.73;4.72;;;;;;;22.40;59.27;101489.35;1729643;81;27508;-61
2023/09/05 07:32:02;;;;;;;7.55;4.37;;;;;;;22.55;59.26;101490.66;1756864;81;25622;-61
2023/09/05 07:34:28;;;;;;;9.38;4.87;;;;;;;22.75;58.79;101494.23;1756931;81;25449;-59
2023/09/05 07:36:57;;;;;;;8.18;4.58;;;;;;;23.13;59.36;101492.61;1756875;81;25503;-60
2023/09/05 07:39:24;;;;;;;5.62;4.42;;;;;;;23.50;58.74;101492.09;1756927;81;25429;-61
2023/09/05 07:41:53;;;;;;;9.78;4.72;;;;;;;23.87;57.79;101501.77;1757277;81;27441;-59
2023/09/05 07:44:19;;;;;;;9.48;4.33;;;;;;;24.22;56.62;101504.27;1756851;81;25481;-61
2023/09/05 07:46:46;;;;;;;9.00;4.37;;;;;;;24.40;54.19;101496.83;1729562;81;25481;-58
2023/09/05 07:49:17;;;;;;;7.42;4.33;;;;;;;24.54;52.87;101502.56;1756822;81;25583;-60
2023/09/05 07:51:44;;;;;;;8.00;4.65;;;;;;;24.66;53.37;101500.73;1756986;81;25560;-59
2023/09/05 07:54:10;;;;;;;11.40;4.47;;;;;;;24.80;52.47;101506.42;1756887;81;27506;-59
2023/09/05 12:09:31;;;;;;;3.30;2.77;;;;;;;33.58;25.79;101312.88;1868248;76;26127;-54
2023/09/05 12:12:14;;;;;;;5.90;3.20;;;;;;;33.55;25.47;101308.96;1824557;78;25502;-54
2023/09/05 12:14:52;;;;;;;4.92;3.17;;;;;;;33.57;25.78;101309.92;1824614;78;27456;-56
2023/09/05 12:17:23;;;;;;;4.72;2.42;;;;;;;33.55;25.36;101301.17;1823995;78;25502;-58
2023/09/05 12:19:53;;;;;;;3.65;2.62;;;;;;;33.58;25.72;101300.26;1824528;78;25376;-57
2023/09/05 12:22:31;;;;;;;5.10;2.70;;;;;;;33.73;25.89;101295.05;1824604;78;25537;-58
2023/09/05 12:25:15;;;;;;;4.75;2.70;;;;;;;33.91;25.26;101296.71;1824763;78;25598;-59
2023/09/05 12:27:49;;;;;;;7.28;2.98;;;;;;;34.14;25.73;101301.22;1824614;78;28169;-57
2023/09/05 12:30:31;;;;;;;5.20;2.80;;;;;;;34.50;25.41;101298.70;1824460;78;25840;-57
2023/09/05 12:33:05;;;;;;;4.45;3.00;;;;;;;34.46;24.78;101295.20;1824536;78;25570;-58
2023/09/05 12:35:34;;;;;;;4.65;3.30;;;;;;;34.30;24.70;101300.34;1824488;78;25700;-57
2023/09/05 12:38:10;;;;;;;7.33;3.15;;;;;;;34.32;24.90;101295.05;1824537;78;25620;-58
2023/09/05 12:40:39;;;;;;;6.22;3.12;;;;;;;34.38;24.53;101296.07;1824456;78;27644;-57
2023/09/05 12:43:07;;;;;;;4.58;2.90;;;;;;;34.27;24.54;101299.05;1824479;78;25475;-57
2023/09/05 12:45:33;;;;;;;6.27;3.40;;;;;;;34.18;24.87;101280.05;1824633;78;25502;-58
2023/09/05 12:48:01;;;;;;;4.70;3.05;;;;;;;34.26;24.93;101273.61;1824355;78;25519;-57
2023/09/05 12:50:32;;;;;;;5.62;2.85;;;;;;;34.31;24.87;101266.83;1824678;78;25536;-56
2023/09/05 12:53:02;;;;;;;5.87;2.72;;;;;;;34.47;24.40;101267.93;1824510;78;27882;-57
2023/09/05 12:55:33;;;;;;;6.25;2.92;;;;;;;34.30;23.51;101261.66;1824368;78;25622;-57
2023/09/05 12:58:07;;;;;;;5.33;3.05;;;;;;;33.68;23.48;101263.53;1824454;78;25360;-59
2023/09/05 13:00:37;;;;;;;4.92;3.25;;;;;;;33.30;23.93;101252.97;1824429;78;25431;-58
2023/09/05 13:03:06;;;;;;;4.72;2.33;;;;;;;33.22;25.05;101246.02;1824460;78;25392;-58
2023/09/05 13:05:34;;;;;;;6.70;2.70;;;;;;;33.19;25.51;101248.30;1824486;78;27471;-58
2023/09/05 13:08:03;;;;;;;7.22;3.35;;;;;;;33.29;24.87;101250.02;1825862;78;25594;-57
2023/09/05 13:10:30;;;;;;;6.22;2.90;;;;;;;33.17;24.15;101252.77;1830529;78;25506;-57
2023/09/05 13:12:58;;;;;;;9.00;3.25;;;;;;;32.97;24.39;101249.48;1830483;78;25419;-56
2023/09/05 13:15:24;;;;;;;3.85;2.55;;;;;;;32.84;24.34;101236.02;1830671;78;25613;-57
2023/09/05 13:17:53;;;;;;;5.60;2.90;;;;;;;32.80;24.42;101238.92;1830780;78;27474;-56
2023/09/05 13:20:20;;;;;;;4.37;3.05;;;;;;;32.55;24.36;101239.54;1830108;78;25510;-56
2023/09/05 13:22:50;;;;;;;5.53;2.90;;;;;;;32.23;24.77;101241.11;1829930;77;25546;-56
2023/09/05 13:25:21;;;;;;;4.12;3.12;;;;;;;32.16;24.70;101245.48;1829936;77;25994;-59
2023/09/05 13:27:48;;;;;;;5.53;3.00;;;;;;;32.03;25.04;101242.58;1829964;78;25508;-60
2023/09/05 13:30:17;;;;;;;5.90;2.97;;;;;;;32.23;25.60;101232.72;1830243;78;27018;-59
2023/09/05 13:32:44;;;;;;;4.00;2.92;;;;;;;32.44;25.42;101225.82;1830111;78;25531;-59
2023/09/05 13:35:12;;;;;;;7.72;2.98;;;;;;;32.66;25.44;101228.89;1829960;78;25606;-59
2023/09/05 13:37:38;;;;;;;5.40;3.00;;;;;;;32.64;24.76;101227.14;1830127;78;25744;-59
2023/09/05 13:40:07;;;;;;;5.25;3.25;;;;;;;32.47;24.79;101213.75;1829969;77;25560;-59
2023/09/05 13:42:34;;;;;;;11.22;9.68;;;;;;;32.24;24.46;101217.52;1813802;78;27461;-51
2023/09/05 13:45:02;;;;;;;10.30;3.85;;;;;;;31.97;25.17;101214.93;1829926;77;25150;-53
2023/09/05 13:47:31;;;;;;;6.58;2.45;;;;;;;31.89;25.53;101210.72;1830017;78;25528;-58
2023/09/05 13:49:57;;;;;;;6.17;2.87;;;;;;;31.93;25.78;101205.84;1829928;78;25292;-53
2023/09/05 13:52:23;;;;;;;4.22;3.00;;;;;;;32.00;25.53;101201.48;1829946;77;25424;-56
2023/09/05 13:54:50;;;;;;;6.00;3.20;;;;;;;32.10;26.15;101204.66;1829934;78;27469;-54
2023/09/05 13:57:16;;;;;;;6.47;3.08;;;;;;;32.20;26.39;101210.61;1829840;78;25503;-56
2023/09/05 13:59:42;;;;;;;5.17;2.62;;;;;;;32.38;26.21;101201.75;1829993;78;25657;-56
2023/09/05 14:02:10;;;;;;;4.90;2.85;;;;;;;32.52;25.75;101207.63;1829853;78;25859;-54
2023/09/05 14:04:37;;;;;;;3.95;2.72;;;;;;;32.58;25.47;101197.44;1830179;78;25371;-55
2023/09/05 14:07:06;;;;;;;7.83;3.12;;;;;;;32.56;25.96;101197.10;1830008;78;27473;-56
2023/09/05 14:09:34;;;;;;;4.28;2.90;;;;;;;32.63;25.78;101189.78;1824954;77;25668;-55
2023/09/05 14:12:01;;;;;;;5.05;2.90;;;;;;;32.54;25.21;101187.59;1823889;78;25590;-55
2023/09/05 14:14:30;;;;;;;4.50;2.87;;;;;;;32.26;24.91;101183.49;1823799;78;25815;-55
2023/09/05 14:16:56;;;;;;;5.22;3.10;;;;;;;32.03;25.24;101179.63;1823869;78;25173;-56
2023/09/05 14:19:25;;;;;;;4.83;2.58;;;;;;;31.75;25.08;101175.48;1824012;78;27485;-55
2023/09/05 14:21:51;;;;;;;4.67;3.02;;;;;;;31.62;25.45;101169.17;1823818;78;25599;-56
2023/09/05 14:24:17;;;;;;;5.15;3.05;;;;;;;31.71;25.37;101174.17;1823733;78;25641;-53
2023/09/05 14:26:51;;;;;;;6.25;2.77;;;;;;;31.68;25.60;101170.84;1823835;78;26592;-54
2023/09/05 14:29:20;;;;;;;4.35;2.50;;;;;;;31.36;25.53;101165.31;1823811;78;25438;-55
2023/09/05 14:31:47;;;;;;;5.25;3.70;;;;;;;31.36;25.53;101165.31;1823829;78;27075;-54
2023/09/05 14:34:15;;;;;;;6.05;3.58;;;;;;;31.16;26.19;101170.94;1823735;78;25725;-54
2023/09/05 14:36:41;;;;;;;7.95;4.05;;;;;;;31.19;26.57;101165.87;1823677;78;25385;-51
2023/09/05 14:39:07;;;;;;;4.78;2.77;;;;;;;31.25;26.60;101159.19;1823722;78;25886;-53
2023/09/05 14:41:35;;;;;;;6.47;2.87;;;;;;;31.26;26.35;101155.95;1823890;78;25593;-52
2023/09/05 14:44:10;;;;;;;6.90;3.08;;;;;;;31.19;26.21;101158.87;1823804;78;27525;-51
2023/09/05 14:46:37;;;;;;;3.87;2.72;;;;;;;30.99;25.81;101160.89;1791151;79;25380;-54
2023/09/05 14:49:05;;;;;;;4.83;2.90;;;;;;;30.75;26.13;101163.74;1771583;80;25560;-51
2023/09/05 14:51:32;;;;;;;7.45;3.10;;;;;;;30.65;26.64;101156.33;1791499;79;25557;-51
2023/09/05 14:53:58;;;;;;;4.00;3.27;;;;;;;30.52;26.71;101156.18;1746277;80;25493;-61
2023/09/05 14:56:24;;;;;;;5.15;3.08;;;;;;;30.44;26.78;101151.31;1791393;79;28112;-58
2023/09/05 14:58:50;;;;;;;3.80;2.70;;;;;;;30.39;27.03;101153.20;1791222;79;25727;-54
2023/09/05 15:01:17;;;;;;;5.08;3.10;;;;;;;30.41;27.07;101149.98;1791307;80;25545;-56
2023/09/05 15:03:44;;;;;;;9.60;3.05;;;;;;;30.38;27.03;101145.25;1791344;80;25522;-58
2023/09/05 15:06:13;;;;;;;6.25;3.12;;;;;;;30.28;26.73;101149.19;1791275;80;25537;-56
2023/09/05 15:08:43;;;;;;;8.80;2.72;;;;;;;30.08;26.61;101153.91;1791249;80;27496;-63
2023/09/05 15:11:09;;;;;;;3.55;3.00;;;;;;;29.79;26.74;101149.55;1791274;80;25807;-63
2023/09/05 15:13:38;;;;;;;71.53;64.17;;;;;;;29.59;26.78;101147.23;1791594;79;25534;-58
2023/09/05 15:16:10;;;;;;;5.37;3.53;;;;;;;29.42;27.14;101147.08;1791566;79;25668;-58
2023/09/05 15:18:37;;;;;;;7.47;3.15;;;;;;;29.28;27.12;101140.30;1791307;80;25465;-59
2023/09/05 15:21:04;;;;;;;4.10;3.17;;;;;;;29.05;27.42;101136.79;1791451;80;27471;-62
2023/09/05 15:23:31;;;;;;;4.70;3.30;;;;;;;28.90;27.45;101138.95;1791169;79;25824;-64
2023/09/05 15:26:05;;;;;;;4.17;3.02;;;;;;;28.72;27.83;101133.56;1791455;80;25629;-63
2023/09/05 15:28:33;;;;;;;8.85;3.30;;;;;;;28.58;28.11;101137.28;1791189;80;25621;-63
2023/09/05 15:30:59;;;;;;;7.30;3.53;;;;;;;28.43;28.32;101151.91;1791555;80;25546;-64
2023/09/05 15:33:30;;;;;;;5.37;3.07;;;;;;;28.43;28.32;101151.91;1791485;79;27864;-63
2023/09/05 15:36:01;;;;;;;3.20;2.90;;;;;;;28.24;28.40;101133.80;1791167;79;26793;-63
2023/09/05 15:38:29;;;;;;;7.55;3.50;;;;;;;28.08;28.41;101129.38;1791252;79;25589;-63